createdAt,value
2019-03-11T00:00:10.056Z,100167.02
2019-03-11T00:05:12.897Z,100165.33
2019-03-11T00:10:16.085Z,100161.30
2019-03-11T00:15:19.804Z,100159.66
2019-03-11T00:20:22.684Z,100166.23
2019-03-11T00:25:25.853Z,100161.31
2019-03-11T00:30:29.317Z,100175.48
2019-03-11T00:35:32.899Z,100174.50
2019-03-11T00:40:35.747Z,100175.46
2019-03-11T00:45:38.640Z,100170.83
2019-03-11T00:50:42.152Z,100168.88
2019-03-11T00:55:45.368Z,100170.09
2019-03-11T01:00:48.954Z,100173.67
2019-03-11T01:05:52.607Z,100169.48
2019-03-11T01:10:55.804Z,100178.10
2019-03-11T01:15:59.024Z,100175.94
2019-03-11T01:21:02.233Z,100172.28
2019-03-11T01:26:05.249Z,100169.57
2019-03-11T01:31:08.132Z,100167.27
2019-03-11T01:36:11.339Z,100164.55
2019-03-11T01:41:14.559Z,100151.95
2019-03-11T01:46:17.118Z,100152.17
2019-03-11T01:51:19.683Z,100152.19
2019-03-11T01:56:22.962Z,100153.49
2019-03-11T02:01:26.277Z,100146.30
2019-03-11T02:06:29.430Z,100144.41
2019-03-11T02:11:32.901Z,100140.32
2019-03-11T02:16:36.463Z,100127.82
2019-03-11T02:21:39.272Z,100129.46
2019-03-11T02:26:42.197Z,100124.63
2019-03-11T02:31:45.339Z,100113.80
2019-03-11T02:36:48.238Z,100105.53
2019-03-11T02:41:51.501Z,100097.14
2019-03-11T02:46:54.745Z,100102.94
2019-03-11T02:51:57.558Z,100091.61
2019-03-11T02:57:01.073Z,100087.68
2019-03-11T03:02:36.050Z,100084.31
2019-03-11T03:07:38.932Z,100082.77
2019-03-11T03:12:41.860Z,100062.38
2019-03-11T03:17:45.159Z,100068.77
2019-03-11T03:22:48.077Z,100063.98
2019-03-11T03:27:51.460Z,100058.02
2019-03-11T03:32:53.955Z,100052.98
2019-03-11T03:37:56.570Z,100048.45
2019-03-11T03:43:00.280Z,100038.36
2019-03-11T03:48:03.283Z,100040.12
2019-03-11T03:53:06.576Z,100036.82
2019-03-11T03:58:10.095Z,100040.09
2019-03-11T04:03:13.117Z,100038.67
2019-03-11T04:08:16.326Z,100039.95
2019-03-11T04:13:18.483Z,100043.45
2019-03-11T04:18:22.054Z,100045.89
2019-03-11T04:23:25.240Z,100042.60
2019-03-11T04:28:28.837Z,100038.47
2019-03-11T04:33:32.005Z,100049.02
2019-03-11T04:38:35.151Z,100045.81
2019-03-11T04:43:38.392Z,100053.03
2019-03-11T04:48:41.592Z,100051.91
2019-03-11T04:53:44.780Z,100062.22
2019-03-11T04:58:47.997Z,100065.33
2019-03-11T05:03:51.203Z,100064.73
2019-03-11T05:08:54.438Z,100068.83
2019-03-11T05:13:57.300Z,100071.31
2019-03-11T05:18:59.936Z,100076.76
2019-03-11T05:24:03.125Z,100077.33
2019-03-11T05:29:06.654Z,100087.97
2019-03-11T05:34:09.151Z,100075.16
2019-03-11T05:39:11.853Z,100081.17
2019-03-11T05:44:15.111Z,100089.62
2019-03-11T05:49:17.952Z,100094.37
2019-03-11T05:54:21.024Z,100102.30
2019-03-11T05:59:24.261Z,100107.89
2019-03-11T06:04:27.083Z,100106.42
2019-03-11T06:09:30.240Z,100116.30
2019-03-11T06:14:33.435Z,100120.10
2019-03-11T06:19:36.890Z,100117.77
2019-03-11T06:24:40.148Z,100125.09
2019-03-11T06:29:43.642Z,100131.73
2019-03-11T06:34:46.853Z,100140.66
2019-03-11T06:39:50.352Z,100143.85
2019-03-11T06:44:53.927Z,100147.75
2019-03-11T06:49:56.662Z,100159.36
2019-03-11T06:54:59.899Z,100161.59
2019-03-11T07:00:02.682Z,100171.52
2019-03-11T07:05:06.317Z,100169.06
2019-03-11T07:10:09.858Z,100163.47
2019-03-11T07:15:13.039Z,100170.01
2019-03-11T07:20:16.358Z,100174.15
2019-03-11T07:25:19.224Z,100183.64
2019-03-11T07:30:22.475Z,100185.98
2019-03-11T07:35:25.269Z,100194.70
2019-03-11T07:40:30.441Z,100191.22
2019-03-11T07:45:33.956Z,100204.19
2019-03-11T07:50:37.472Z,100203.67
2019-03-11T07:55:40.612Z,100213.68
2019-03-11T08:00:53.252Z,100222.57
2019-03-11T08:05:48.657Z,100227.89
2019-03-11T08:10:51.431Z,100232.19
2019-03-11T08:15:54.736Z,100234.16
2019-03-11T08:20:58.423Z,100243.77
2019-03-11T08:26:01.365Z,100253.11
2019-03-11T08:31:05.089Z,100262.67
2019-03-11T08:36:08.594Z,100264.50
2019-03-11T08:41:11.796Z,100269.18
2019-03-11T08:46:14.624Z,100262.23
2019-03-11T08:51:17.827Z,100265.30
2019-03-11T08:56:21.351Z,100274.98
2019-03-11T09:01:24.652Z,100267.20
2019-03-11T09:06:27.964Z,100268.92
2019-03-11T09:11:30.628Z,100264.80
2019-03-11T09:16:33.998Z,100270.21
2019-03-11T09:21:37.398Z,100273.92
2019-03-11T09:26:40.596Z,100281.27
2019-03-11T09:31:43.799Z,100282.08
2019-03-11T09:36:47.380Z,100290.91
2019-03-11T09:41:49.699Z,100297.49
2019-03-11T09:46:52.632Z,100298.50
2019-03-11T09:51:55.526Z,100312.59
2019-03-11T09:56:58.485Z,100313.95
2019-03-11T10:02:02.030Z,100325.84
2019-03-11T10:07:06.797Z,100328.84
2019-03-11T10:12:09.963Z,100330.49
2019-03-11T10:17:13.465Z,100336.95
2019-03-11T10:22:16.937Z,100337.02
2019-03-11T10:27:19.444Z,100344.81
2019-03-11T10:32:22.915Z,100364.84
2019-03-11T10:37:26.452Z,100371.80
2019-03-11T10:42:29.439Z,100378.19
2019-03-11T10:47:32.676Z,100384.75
2019-03-11T10:52:35.615Z,100388.47
2019-03-11T10:57:38.426Z,100391.38
2019-03-11T11:02:41.838Z,100418.14
2019-03-11T11:07:44.706Z,100427.60
2019-03-11T11:12:48.065Z,100443.67
2019-03-11T11:17:51.703Z,100454.68
2019-03-11T11:22:54.917Z,100459.29
2019-03-11T11:27:58.299Z,100457.34
2019-03-11T11:33:00.839Z,100472.02
2019-03-11T11:38:04.257Z,100469.98
2019-03-11T11:43:07.537Z,100479.12
2019-03-11T11:48:10.890Z,100479.33
2019-03-11T11:53:14.433Z,100485.56
2019-03-11T11:58:17.913Z,100487.66
2019-03-11T12:03:21.129Z,100479.88
2019-03-11T12:08:24.411Z,100482.03
2019-03-11T12:13:27.724Z,100486.80
2019-03-11T12:18:31.239Z,100493.94
2019-03-11T12:23:45.595Z,100495.42
2019-03-11T12:28:40.535Z,100494.11
2019-03-11T12:33:44.242Z,100496.23
2019-03-11T12:38:47.087Z,100502.77
2019-03-11T12:43:50.702Z,100500.55
2019-03-11T12:48:54.201Z,100507.70
2019-03-11T12:53:57.076Z,100514.23
2019-03-11T12:59:00.646Z,100527.00
2019-03-11T13:04:05.031Z,100536.38
2019-03-11T13:09:07.930Z,100541.74
2019-03-11T13:14:10.960Z,100546.77
2019-03-11T13:19:14.301Z,100545.23
2019-03-11T13:24:17.495Z,100544.97
2019-03-11T13:29:21.019Z,100559.48
2019-03-11T13:34:24.100Z,100564.27
2019-03-11T13:39:27.901Z,100568.48
2019-03-11T13:44:31.463Z,100569.30
2019-03-11T13:49:34.984Z,100578.66
2019-03-11T13:54:38.512Z,100591.68
2019-03-11T13:59:41.408Z,100600.41
2019-03-11T14:04:44.317Z,100596.61
2019-03-11T14:09:47.178Z,100597.75
2019-03-11T14:14:50.473Z,100611.84
2019-03-11T14:19:53.949Z,100611.64
2019-03-11T14:24:56.968Z,100615.67
2019-03-11T14:29:59.972Z,100626.91
2019-03-11T14:35:02.451Z,100638.38
2019-03-11T14:40:06.528Z,100650.82
2019-03-11T14:45:11.981Z,100657.62
2019-03-11T14:50:15.374Z,100675.91
2019-03-11T14:55:18.579Z,100691.40
2019-03-11T15:00:22.142Z,100707.16
2019-03-11T15:05:25.093Z,100710.03
2019-03-11T15:10:28.343Z,100716.48
2019-03-11T15:15:31.593Z,100734.17
2019-03-11T15:20:35.150Z,100741.19
2019-03-11T15:25:38.353Z,100753.56
2019-03-11T15:30:41.169Z,100762.48
2019-03-11T15:35:44.476Z,100774.09
2019-03-11T15:40:47.969Z,100783.41
2019-03-11T15:45:51.612Z,100794.02
2019-03-11T15:50:54.838Z,100801.94
2019-03-11T15:55:57.788Z,100818.16
2019-03-11T16:01:00.750Z,100827.13
2019-03-11T16:06:04.502Z,100827.09
2019-03-11T16:11:07.474Z,100832.44
2019-03-11T16:16:10.808Z,100848.62
2019-03-11T16:21:14.148Z,100859.89
2019-03-11T16:26:16.727Z,100865.23
2019-03-11T16:31:20.259Z,100868.22
2019-03-11T16:36:23.087Z,100883.17
2019-03-11T16:41:26.491Z,100893.79
2019-03-11T16:46:30.163Z,100906.61
2019-03-11T16:51:33.142Z,100910.05
2019-03-11T16:56:36.129Z,100921.50
2019-03-11T17:01:39.346Z,100930.77
2019-03-11T17:06:42.576Z,100939.08
2019-03-11T17:11:45.502Z,100959.53
2019-03-11T17:16:50.835Z,100970.74
2019-03-11T17:21:54.333Z,100983.98
2019-03-11T17:26:57.319Z,100998.12
2019-03-11T17:32:00.651Z,101021.48
2019-03-11T17:37:03.537Z,101035.28
2019-03-11T17:42:06.446Z,101055.06
2019-03-11T17:47:09.528Z,101064.45
2019-03-11T17:52:13.165Z,101071.70
2019-03-11T17:57:16.149Z,101078.56
2019-03-11T18:02:19.496Z,101090.55
2019-03-11T18:07:22.988Z,101103.38
2019-03-11T18:12:26.545Z,101109.84
2019-03-11T18:17:29.614Z,101125.03
2019-03-11T18:22:32.332Z,101136.09
2019-03-11T18:27:35.644Z,101148.33
2019-03-11T18:32:38.877Z,101157.94
2019-03-11T18:37:42.086Z,101174.34
2019-03-11T18:42:47.323Z,101183.27
2019-03-11T18:47:50.605Z,101188.22
2019-03-11T18:52:54.070Z,101203.86
2019-03-11T18:57:57.359Z,101203.12
2019-03-11T19:03:00.839Z,101215.65
2019-03-11T19:08:03.888Z,101214.11
2019-03-11T19:13:09.542Z,101217.90
2019-03-11T19:18:12.763Z,101212.14
2019-03-11T19:23:17.355Z,101215.21
2019-03-11T19:28:24.781Z,101215.38
2019-03-11T19:33:31.318Z,101232.02
2019-03-11T19:38:37.527Z,101232.89
2019-03-11T19:43:44.526Z,101237.89
2019-03-11T19:48:51.678Z,101247.36
2019-03-11T19:53:58.310Z,101256.89
2019-03-11T19:59:08.147Z,101275.83
2019-03-11T20:04:17.812Z,101293.84
2019-03-11T20:09:26.059Z,101302.53
2019-03-11T20:14:35.129Z,101315.66
2019-03-11T20:19:43.510Z,101312.51
2019-03-11T20:24:54.248Z,101324.09
2019-03-11T20:29:59.661Z,101336.06
2019-03-11T20:35:06.481Z,101353.76
2019-03-11T20:40:12.705Z,101361.66
2019-03-11T20:45:20.423Z,101367.06
2019-03-11T20:50:37.624Z,101376.80
2019-03-11T20:55:37.989Z,101391.27
2019-03-11T21:00:43.718Z,101388.34
2019-03-11T21:05:48.498Z,101394.32
2019-03-11T21:10:52.253Z,101405.55
2019-03-11T21:15:56.150Z,101416.66
2019-03-11T21:21:04.642Z,101418.12
2019-03-11T21:26:04.924Z,101425.40
2019-03-11T21:31:08.594Z,101426.20
2019-03-11T21:36:11.752Z,101431.00
2019-03-11T21:41:15.149Z,101438.20
2019-03-11T21:46:18.761Z,101424.14
2019-03-11T21:51:21.949Z,101418.16
2019-03-11T21:56:24.936Z,101429.40
2019-03-11T22:01:28.560Z,101443.41
2019-03-11T22:06:31.764Z,101467.25
2019-03-11T22:11:35.284Z,101477.30
2019-03-11T22:16:38.515Z,101470.53
2019-03-11T22:21:42.108Z,101452.07
2019-03-11T22:26:45.338Z,101467.41
2019-03-11T22:31:48.596Z,101466.95
2019-03-11T22:36:51.861Z,101470.96
2019-03-11T22:41:54.051Z,101498.20
2019-03-11T22:46:57.550Z,101499.56
2019-03-11T22:52:01.013Z,101506.94
2019-03-11T22:57:04.290Z,101516.64
2019-03-11T23:02:11.724Z,101523.48
2019-03-11T23:07:15.001Z,101529.10
2019-03-11T23:12:18.563Z,101535.36
2019-03-11T23:17:21.810Z,101538.60
2019-03-11T23:22:25.372Z,101549.95
2019-03-11T23:27:28.615Z,101549.31
2019-03-11T23:32:31.578Z,101552.81
2019-03-11T23:37:35.076Z,101563.89
2019-03-11T23:42:37.569Z,101564.64
2019-03-11T23:47:40.839Z,101566.66
2019-03-11T23:52:44.481Z,101564.39
2019-03-11T23:57:48.018Z,101557.42
